Terminal Aerodrome Forecast
Issued by NWS

Home | Current Version | Previous Version | Text Only | Print | Product List | Glossary On
Versions: 1 2 3 4 5 6 7 8 9 10 11 12 13 14 15 16 17 18 19
000
FTUS41 KBOX 152329
TAFFMH
TAF
KFMH 152329Z 1600/1624 20028G37KT 3SM -SHRA SCT007 OVC012
      WS020/20060KT
     FM160500 28015G30KT 3SM RA BR OVC008
     FM160800 32012G29KT 3SM -RA OVC015
     FM160900 32012G30KT 5SM -RA OVC040
     FM161100 32017G31KT P6SM BKN250
     FM161900 35014G21KT P6SM SKC=

USA.gov is the U.S. government's official web portal to all federal, state and local government web resources and services.